sensor_id;sensor_type;location;lat;lon;timestamp;P1;durP1;ratioP1;P2;durP2;ratioP2
55989;SDS011;41875;55.806;38.082;2024-02-21T00:01:14;18.80;;;8.60;;
55989;SDS011;41875;55.806;38.082;2024-02-21T00:04:19;19.50;;;8.32;;
55989;SDS011;41875;55.806;38.082;2024-02-21T00:07:22;16.05;;;7.15;;
55989;SDS011;41875;55.806;38.082;2024-02-21T00:10:26;17.55;;;8.32;;
55989;SDS011;41875;55.806;38.082;2024-02-21T00:13:32;18.05;;;8.55;;
55989;SDS011;41875;55.806;38.082;2024-02-21T00:16:36;12.57;;;5.68;;
55989;SDS011;41875;55.806;38.082;2024-02-21T00:19:39;17.63;;;7.93;;
55989;SDS011;41875;55.806;38.082;2024-02-21T00:22:43;19.80;;;8.30;;
55989;SDS011;41875;55.806;38.082;2024-02-21T00:25:50;18.73;;;7.45;;
55989;SDS011;41875;55.806;38.082;2024-02-21T00:28:55;15.52;;;6.95;;
55989;SDS011;41875;55.806;38.082;2024-02-21T00:31:58;15.45;;;7.28;;
55989;SDS011;41875;55.806;38.082;2024-02-21T00:35:02;18.15;;;7.75;;
55989;SDS011;41875;55.806;38.082;2024-02-21T00:38:06;15.45;;;7.38;;
55989;SDS011;41875;55.806;38.082;2024-02-21T00:41:10;16.25;;;7.45;;
55989;SDS011;41875;55.806;38.082;2024-02-21T00:44:15;14.23;;;6.50;;
55989;SDS011;41875;55.806;38.082;2024-02-21T00:47:19;12.40;;;6.22;;
55989;SDS011;41875;55.806;38.082;2024-02-21T00:50:26;17.17;;;6.65;;
55989;SDS011;41875;55.806;38.082;2024-02-21T00:53:29;21.05;;;8.25;;
55989;SDS011;41875;55.806;38.082;2024-02-21T00:56:33;16.67;;;8.23;;
55989;SDS011;41875;55.806;38.082;2024-02-21T00:59:38;13.52;;;6.20;;
55989;SDS011;41875;55.806;38.082;2024-02-21T01:02:43;14.60;;;7.07;;
55989;SDS011;41875;55.806;38.082;2024-02-21T01:05:52;13.35;;;6.28;;
55989;SDS011;41875;55.806;38.082;2024-02-21T01:08:56;16.80;;;7.55;;
55989;SDS011;41875;55.806;38.082;2024-02-21T01:12:03;16.65;;;6.93;;
55989;SDS011;41875;55.806;38.082;2024-02-21T01:15:09;17.15;;;6.38;;
55989;SDS011;41875;55.806;38.082;2024-02-21T01:18:13;14.02;;;6.95;;
55989;SDS011;41875;55.806;38.082;2024-02-21T01:21:17;15.10;;;6.80;;
55989;SDS011;41875;55.806;38.082;2024-02-21T01:24:21;17.60;;;7.40;;
55989;SDS011;41875;55.806;38.082;2024-02-21T01:27:26;15.25;;;6.85;;
55989;SDS011;41875;55.806;38.082;2024-02-21T01:30:31;15.60;;;6.85;;
55989;SDS011;41875;55.806;38.082;2024-02-21T01:33:38;14.27;;;6.78;;
55989;SDS011;41875;55.806;38.082;2024-02-21T01:36:45;15.57;;;7.33;;
55989;SDS011;41875;55.806;38.082;2024-02-21T01:39:49;15.43;;;7.80;;
55989;SDS011;41875;55.806;38.082;2024-02-21T01:42:55;14.45;;;7.35;;
55989;SDS011;41875;55.806;38.082;2024-02-21T01:46:03;16.63;;;7.57;;
55989;SDS011;41875;55.806;38.082;2024-02-21T01:49:09;15.43;;;7.28;;
55989;SDS011;41875;55.806;38.082;2024-02-21T01:52:14;15.65;;;7.07;;
55989;SDS011;41875;55.806;38.082;2024-02-21T01:55:23;17.08;;;6.80;;
55989;SDS011;41875;55.806;38.082;2024-02-21T01:58:31;16.52;;;7.35;;
55989;SDS011;41875;55.806;38.082;2024-02-21T02:01:42;17.23;;;7.72;;
55989;SDS011;41875;55.806;38.082;2024-02-21T02:04:50;16.73;;;7.10;;
55989;SDS011;41875;55.806;38.082;2024-02-21T02:07:57;18.83;;;7.77;;
55989;SDS011;41875;55.806;38.082;2024-02-21T02:11:03;14.13;;;6.93;;
55989;SDS011;41875;55.806;38.082;2024-02-21T02:14:09;15.82;;;7.75;;
55989;SDS011;41875;55.806;38.082;2024-02-21T02:17:14;17.70;;;7.25;;
55989;SDS011;41875;55.806;38.082;2024-02-21T02:20:18;15.13;;;7.70;;
55989;SDS011;41875;55.806;38.082;2024-02-21T02:23:25;19.80;;;7.30;;
55989;SDS011;41875;55.806;38.082;2024-02-21T02:26:30;12.80;;;6.35;;
55989;SDS011;41875;55.806;38.082;2024-02-21T02:29:33;17.40;;;8.15;;
55989;SDS011;41875;55.806;38.082;2024-02-21T02:32:37;17.10;;;7.60;;
55989;SDS011;41875;55.806;38.082;2024-02-21T02:35:41;16.33;;;7.55;;
55989;SDS011;41875;55.806;38.082;2024-02-21T02:38:46;17.88;;;7.70;;
55989;SDS011;41875;55.806;38.082;2024-02-21T02:41:50;18.10;;;7.13;;
55989;SDS011;41875;55.806;38.082;2024-02-21T02:44:54;15.73;;;6.60;;
55989;SDS011;41875;55.806;38.082;2024-02-21T02:48:00;17.88;;;8.02;;
55989;SDS011;41875;55.806;38.082;2024-02-21T02:51:04;17.92;;;6.82;;
55989;SDS011;41875;55.806;38.082;2024-02-21T02:54:09;15.82;;;6.88;;
55989;SDS011;41875;55.806;38.082;2024-02-21T02:57:13;16.13;;;7.63;;
55989;SDS011;41875;55.806;38.082;2024-02-21T03:00:20;16.75;;;8.73;;
55989;SDS011;41875;55.806;38.082;2024-02-21T03:03:24;16.23;;;7.28;;
55989;SDS011;41875;55.806;38.082;2024-02-21T03:06:27;15.95;;;7.07;;
55989;SDS011;41875;55.806;38.082;2024-02-21T03:09:32;14.65;;;6.63;;
55989;SDS011;41875;55.806;38.082;2024-02-21T03:12:38;15.27;;;6.68;;
55989;SDS011;41875;55.806;38.082;2024-02-21T03:15:42;16.00;;;6.13;;
55989;SDS011;41875;55.806;38.082;2024-02-21T03:18:47;19.15;;;7.32;;
55989;SDS011;41875;55.806;38.082;2024-02-21T03:21:57;17.30;;;7.57;;
55989;SDS011;41875;55.806;38.082;2024-02-21T03:25:03;18.83;;;7.50;;
55989;SDS011;41875;55.806;38.082;2024-02-21T03:28:24;17.42;;;7.75;;
55989;SDS011;41875;55.806;38.082;2024-02-21T03:31:54;17.08;;;8.07;;
55989;SDS011;41875;55.806;38.082;2024-02-21T03:35:01;17.85;;;6.93;;
55989;SDS011;41875;55.806;38.082;2024-02-21T03:38:06;14.38;;;6.65;;
55989;SDS011;41875;55.806;38.082;2024-02-21T03:41:13;17.02;;;7.32;;
55989;SDS011;41875;55.806;38.082;2024-02-21T03:44:18;16.08;;;7.40;;
55989;SDS011;41875;55.806;38.082;2024-02-21T03:47:23;14.20;;;6.53;;
55989;SDS011;41875;55.806;38.082;2024-02-21T03:50:27;16.58;;;6.45;;
55989;SDS011;41875;55.806;38.082;2024-02-21T03:53:31;17.73;;;7.60;;
55989;SDS011;41875;55.806;38.082;2024-02-21T03:56:38;15.23;;;6.53;;
55989;SDS011;41875;55.806;38.082;2024-02-21T03:59:42;15.32;;;7.78;;
55989;SDS011;41875;55.806;38.082;2024-02-21T04:02:49;17.05;;;7.28;;
55989;SDS011;41875;55.806;38.082;2024-02-21T04:05:55;14.82;;;6.55;;
55989;SDS011;41875;55.806;38.082;2024-02-21T04:09:02;15.20;;;7.13;;
55989;SDS011;41875;55.806;38.082;2024-02-21T04:12:08;18.30;;;8.10;;
55989;SDS011;41875;55.806;38.082;2024-02-21T04:15:11;19.30;;;7.75;;
55989;SDS011;41875;55.806;38.082;2024-02-21T04:18:17;17.70;;;7.25;;
55989;SDS011;41875;55.806;38.082;2024-02-21T04:21:21;19.85;;;7.40;;
55989;SDS011;41875;55.806;38.082;2024-02-21T04:24:27;18.63;;;7.95;;
55989;SDS011;41875;55.806;38.082;2024-02-21T04:27:33;17.35;;;8.73;;
55989;SDS011;41875;55.806;38.082;2024-02-21T04:30:39;19.73;;;7.63;;
55989;SDS011;41875;55.806;38.082;2024-02-21T04:33:44;17.58;;;7.75;;
55989;SDS011;41875;55.806;38.082;2024-02-21T04:36:48;17.42;;;7.80;;
55989;SDS011;41875;55.806;38.082;2024-02-21T04:39:51;18.30;;;7.82;;
55989;SDS011;41875;55.806;38.082;2024-02-21T04:42:55;17.80;;;7.93;;
55989;SDS011;41875;55.806;38.082;2024-02-21T04:46:00;16.48;;;6.88;;
55989;SDS011;41875;55.806;38.082;2024-02-21T04:49:05;19.67;;;7.65;;
55989;SDS011;41875;55.806;38.082;2024-02-21T04:52:08;16.83;;;7.90;;
55989;SDS011;41875;55.806;38.082;2024-02-21T04:55:13;17.00;;;7.65;;
55989;SDS011;41875;55.806;38.082;2024-02-21T04:58:20;18.05;;;8.30;;
55989;SDS011;41875;55.806;38.082;2024-02-21T05:01:27;17.20;;;8.02;;
55989;SDS011;41875;55.806;38.082;2024-02-21T05:04:33;14.95;;;6.32;;
55989;SDS011;41875;55.806;38.082;2024-02-21T05:07:39;21.30;;;8.18;;
55989;SDS011;41875;55.806;38.082;2024-02-21T05:10:42;15.52;;;7.60;;
55989;SDS011;41875;55.806;38.082;2024-02-21T05:13:47;19.08;;;8.10;;
55989;SDS011;41875;55.806;38.082;2024-02-21T05:16:50;19.10;;;8.25;;
55989;SDS011;41875;55.806;38.082;2024-02-21T05:19:55;16.60;;;7.65;;
55989;SDS011;41875;55.806;38.082;2024-02-21T05:22:59;20.52;;;8.63;;
55989;SDS011;41875;55.806;38.082;2024-02-21T05:26:03;17.73;;;9.10;;
55989;SDS011;41875;55.806;38.082;2024-02-21T05:29:07;19.58;;;7.70;;
55989;SDS011;41875;55.806;38.082;2024-02-21T05:32:11;19.70;;;8.10;;
55989;SDS011;41875;55.806;38.082;2024-02-21T05:35:16;18.02;;;8.05;;
55989;SDS011;41875;55.806;38.082;2024-02-21T05:38:20;17.88;;;8.30;;
55989;SDS011;41875;55.806;38.082;2024-02-21T05:41:24;20.63;;;7.85;;
55989;SDS011;41875;55.806;38.082;2024-02-21T05:44:28;19.25;;;8.50;;
55989;SDS011;41875;55.806;38.082;2024-02-21T05:47:32;18.95;;;7.53;;
55989;SDS011;41875;55.806;38.082;2024-02-21T05:50:38;16.58;;;6.95;;
55989;SDS011;41875;55.806;38.082;2024-02-21T05:53:41;20.45;;;8.55;;
55989;SDS011;41875;55.806;38.082;2024-02-21T05:56:45;19.00;;;8.20;;
55989;SDS011;41875;55.806;38.082;2024-02-21T05:59:49;24.73;;;8.82;;
55989;SDS011;41875;55.806;38.082;2024-02-21T06:02:54;18.23;;;8.02;;
55989;SDS011;41875;55.806;38.082;2024-02-21T06:06:03;18.27;;;7.63;;
55989;SDS011;41875;55.806;38.082;2024-02-21T06:09:07;21.80;;;9.07;;
55989;SDS011;41875;55.806;38.082;2024-02-21T06:12:11;19.27;;;7.13;;
55989;SDS011;41875;55.806;38.082;2024-02-21T06:15:15;23.08;;;8.73;;
55989;SDS011;41875;55.806;38.082;2024-02-21T06:18:19;18.98;;;8.05;;
55989;SDS011;41875;55.806;38.082;2024-02-21T06:21:30;17.70;;;7.05;;
55989;SDS011;41875;55.806;38.082;2024-02-21T06:24:34;20.08;;;8.70;;
55989;SDS011;41875;55.806;38.082;2024-02-21T06:27:38;21.15;;;8.30;;
55989;SDS011;41875;55.806;38.082;2024-02-21T06:30:44;19.75;;;7.80;;
55989;SDS011;41875;55.806;38.082;2024-02-21T06:33:47;19.30;;;7.78;;
55989;SDS011;41875;55.806;38.082;2024-02-21T06:36:53;18.65;;;7.60;;
55989;SDS011;41875;55.806;38.082;2024-02-21T06:39:57;19.95;;;7.88;;
55989;SDS011;41875;55.806;38.082;2024-02-21T06:43:02;19.20;;;7.80;;
55989;SDS011;41875;55.806;38.082;2024-02-21T06:46:07;18.08;;;7.72;;
55989;SDS011;41875;55.806;38.082;2024-02-21T06:49:11;19.52;;;8.07;;
55989;SDS011;41875;55.806;38.082;2024-02-21T06:52:19;17.13;;;9.30;;
55989;SDS011;41875;55.806;38.082;2024-02-21T06:55:24;18.75;;;9.43;;
55989;SDS011;41875;55.806;38.082;2024-02-21T06:58:28;22.20;;;8.52;;
55989;SDS011;41875;55.806;38.082;2024-02-21T07:01:32;18.35;;;7.80;;
55989;SDS011;41875;55.806;38.082;2024-02-21T07:04:36;17.90;;;7.43;;
55989;SDS011;41875;55.806;38.082;2024-02-21T07:12:29;18.63;;;7.40;;
55989;SDS011;41875;55.806;38.082;2024-02-21T07:15:35;16.83;;;7.10;;
55989;SDS011;41875;55.806;38.082;2024-02-21T07:18:40;17.33;;;7.60;;
55989;SDS011;41875;55.806;38.082;2024-02-21T07:21:52;16.67;;;7.72;;
55989;SDS011;41875;55.806;38.082;2024-02-21T07:24:57;19.35;;;8.35;;
55989;SDS011;41875;55.806;38.082;2024-02-21T07:28:14;17.30;;;7.63;;
55989;SDS011;41875;55.806;38.082;2024-02-21T07:31:20;12.70;;;6.55;;
55989;SDS011;41875;55.806;38.082;2024-02-21T07:34:24;16.98;;;7.68;;
55989;SDS011;41875;55.806;38.082;2024-02-21T07:37:28;15.02;;;6.88;;
55989;SDS011;41875;55.806;38.082;2024-02-21T07:40:34;14.15;;;6.85;;
55989;SDS011;41875;55.806;38.082;2024-02-21T07:43:40;13.43;;;6.55;;
55989;SDS011;41875;55.806;38.082;2024-02-21T07:46:48;16.38;;;7.05;;
55989;SDS011;41875;55.806;38.082;2024-02-21T07:49:52;17.20;;;6.78;;
55989;SDS011;41875;55.806;38.082;2024-02-21T07:52:55;16.48;;;6.82;;
55989;SDS011;41875;55.806;38.082;2024-02-21T07:56:00;19.17;;;8.30;;
55989;SDS011;41875;55.806;38.082;2024-02-21T07:59:07;18.65;;;7.80;;
55989;SDS011;41875;55.806;38.082;2024-02-21T08:02:11;15.57;;;6.72;;
55989;SDS011;41875;55.806;38.082;2024-02-21T08:05:15;20.25;;;9.60;;
55989;SDS011;41875;55.806;38.082;2024-02-21T08:08:22;14.75;;;7.15;;
55989;SDS011;41875;55.806;38.082;2024-02-21T08:11:33;18.30;;;7.15;;
55989;SDS011;41875;55.806;38.082;2024-02-21T08:14:38;17.73;;;7.72;;
55989;SDS011;41875;55.806;38.082;2024-02-21T08:17:42;15.93;;;7.68;;
55989;SDS011;41875;55.806;38.082;2024-02-21T08:20:51;17.27;;;7.18;;
55989;SDS011;41875;55.806;38.082;2024-02-21T08:24:04;16.70;;;6.78;;
55989;SDS011;41875;55.806;38.082;2024-02-21T08:27:42;16.65;;;6.70;;
55989;SDS011;41875;55.806;38.082;2024-02-21T08:30:49;17.40;;;7.20;;
55989;SDS011;41875;55.806;38.082;2024-02-21T08:33:52;17.08;;;7.15;;
55989;SDS011;41875;55.806;38.082;2024-02-21T08:36:56;12.48;;;6.07;;
55989;SDS011;41875;55.806;38.082;2024-02-21T08:40:00;16.38;;;7.07;;
55989;SDS011;41875;55.806;38.082;2024-02-21T08:43:12;15.75;;;6.93;;
55989;SDS011;41875;55.806;38.082;2024-02-21T08:46:19;15.90;;;6.20;;
55989;SDS011;41875;55.806;38.082;2024-02-21T08:49:26;17.67;;;7.60;;
55989;SDS011;41875;55.806;38.082;2024-02-21T08:52:36;16.63;;;6.63;;
55989;SDS011;41875;55.806;38.082;2024-02-21T08:55:39;16.45;;;6.75;;
55989;SDS011;41875;55.806;38.082;2024-02-21T08:58:43;18.58;;;7.65;;
55989;SDS011;41875;55.806;38.082;2024-02-21T09:01:51;16.60;;;7.15;;
55989;SDS011;41875;55.806;38.082;2024-02-21T09:05:00;18.67;;;7.05;;
55989;SDS011;41875;55.806;38.082;2024-02-21T09:08:05;16.90;;;7.70;;
55989;SDS011;41875;55.806;38.082;2024-02-21T09:11:09;16.25;;;6.75;;
55989;SDS011;41875;55.806;38.082;2024-02-21T09:14:13;15.95;;;6.72;;
55989;SDS011;41875;55.806;38.082;2024-02-21T09:17:25;17.80;;;7.00;;
55989;SDS011;41875;55.806;38.082;2024-02-21T09:20:31;13.10;;;5.67;;
55989;SDS011;41875;55.806;38.082;2024-02-21T09:23:35;15.18;;;7.18;;
55989;SDS011;41875;55.806;38.082;2024-02-21T09:26:39;15.63;;;6.00;;
55989;SDS011;41875;55.806;38.082;2024-02-21T09:29:43;13.10;;;6.10;;
55989;SDS011;41875;55.806;38.082;2024-02-21T09:32:48;16.00;;;6.05;;
55989;SDS011;41875;55.806;38.082;2024-02-21T09:35:52;16.10;;;6.85;;
55989;SDS011;41875;55.806;38.082;2024-02-21T09:39:06;12.38;;;6.10;;
55989;SDS011;41875;55.806;38.082;2024-02-21T09:42:11;12.88;;;6.28;;
55989;SDS011;41875;55.806;38.082;2024-02-21T09:45:21;17.50;;;6.07;;
55989;SDS011;41875;55.806;38.082;2024-02-21T09:48:38;14.65;;;6.95;;
55989;SDS011;41875;55.806;38.082;2024-02-21T09:56:35;16.67;;;6.53;;
55989;SDS011;41875;55.806;38.082;2024-02-21T09:59:39;14.70;;;6.78;;
55989;SDS011;41875;55.806;38.082;2024-02-21T10:02:44;14.73;;;6.45;;
55989;SDS011;41875;55.806;38.082;2024-02-21T10:05:49;18.75;;;7.60;;
55989;SDS011;41875;55.806;38.082;2024-02-21T10:08:55;15.93;;;7.47;;
55989;SDS011;41875;55.806;38.082;2024-02-21T10:12:07;17.13;;;6.85;;
55989;SDS011;41875;55.806;38.082;2024-02-21T10:15:12;16.60;;;7.40;;
55989;SDS011;41875;55.806;38.082;2024-02-21T10:22:16;15.93;;;6.55;;
55989;SDS011;41875;55.806;38.082;2024-02-21T10:26:04;13.60;;;6.15;;
55989;SDS011;41875;55.806;38.082;2024-02-21T10:32:13;13.50;;;5.90;;
55989;SDS011;41875;55.806;38.082;2024-02-21T10:35:26;12.82;;;5.20;;
55989;SDS011;41875;55.806;38.082;2024-02-21T10:38:33;18.20;;;7.13;;
55989;SDS011;41875;55.806;38.082;2024-02-21T10:41:36;13.32;;;6.47;;
55989;SDS011;41875;55.806;38.082;2024-02-21T10:44:50;15.25;;;5.75;;
55989;SDS011;41875;55.806;38.082;2024-02-21T10:48:09;13.48;;;5.88;;
55989;SDS011;41875;55.806;38.082;2024-02-21T10:51:18;13.65;;;7.03;;
55989;SDS011;41875;55.806;38.082;2024-02-21T10:54:34;12.38;;;5.07;;
55989;SDS011;41875;55.806;38.082;2024-02-21T10:57:51;13.68;;;5.47;;
55989;SDS011;41875;55.806;38.082;2024-02-21T11:05:41;15.55;;;6.15;;
55989;SDS011;41875;55.806;38.082;2024-02-21T11:08:47;15.40;;;5.50;;
55989;SDS011;41875;55.806;38.082;2024-02-21T11:12:06;16.80;;;5.85;;
55989;SDS011;41875;55.806;38.082;2024-02-21T11:15:11;12.52;;;5.50;;
55989;SDS011;41875;55.806;38.082;2024-02-21T11:18:23;12.48;;;6.80;;
55989;SDS011;41875;55.806;38.082;2024-02-21T11:21:32;12.00;;;5.05;;
55989;SDS011;41875;55.806;38.082;2024-02-21T11:24:36;10.98;;;5.18;;
55989;SDS011;41875;55.806;38.082;2024-02-21T11:27:46;13.10;;;5.28;;
55989;SDS011;41875;55.806;38.082;2024-02-21T11:30:52;14.70;;;6.35;;
55989;SDS011;41875;55.806;38.082;2024-02-21T11:33:57;13.25;;;5.25;;
55989;SDS011;41875;55.806;38.082;2024-02-21T11:37:35;12.13;;;5.15;;
55989;SDS011;41875;55.806;38.082;2024-02-21T11:44:54;17.10;;;6.15;;
55989;SDS011;41875;55.806;38.082;2024-02-21T11:47:59;14.63;;;6.07;;
55989;SDS011;41875;55.806;38.082;2024-02-21T11:51:12;13.23;;;6.10;;
55989;SDS011;41875;55.806;38.082;2024-02-21T11:55:19;12.35;;;5.60;;
55989;SDS011;41875;55.806;38.082;2024-02-21T11:58:30;11.32;;;5.30;;
55989;SDS011;41875;55.806;38.082;2024-02-21T12:01:39;11.63;;;6.10;;
55989;SDS011;41875;55.806;38.082;2024-02-21T12:04:44;11.18;;;4.78;;
55989;SDS011;41875;55.806;38.082;2024-02-21T12:07:51;10.90;;;5.05;;
55989;SDS011;41875;55.806;38.082;2024-02-21T12:10:55;13.35;;;6.35;;
55989;SDS011;41875;55.806;38.082;2024-02-21T12:13:59;9.38;;;4.88;;
55989;SDS011;41875;55.806;38.082;2024-02-21T12:17:07;14.90;;;5.90;;
55989;SDS011;41875;55.806;38.082;2024-02-21T12:20:10;12.77;;;5.25;;
55989;SDS011;41875;55.806;38.082;2024-02-21T12:23:18;11.13;;;5.95;;
55989;SDS011;41875;55.806;38.082;2024-02-21T12:26:21;13.07;;;5.80;;
55989;SDS011;41875;55.806;38.082;2024-02-21T12:29:25;15.50;;;4.80;;
55989;SDS011;41875;55.806;38.082;2024-02-21T12:32:33;15.75;;;5.22;;
55989;SDS011;41875;55.806;38.082;2024-02-21T12:36:03;11.27;;;4.90;;
55989;SDS011;41875;55.806;38.082;2024-02-21T12:39:10;13.85;;;5.38;;
55989;SDS011;41875;55.806;38.082;2024-02-21T12:42:14;13.70;;;5.78;;
55989;SDS011;41875;55.806;38.082;2024-02-21T12:45:19;10.65;;;4.63;;
55989;SDS011;41875;55.806;38.082;2024-02-21T12:48:27;13.40;;;5.15;;
55989;SDS011;41875;55.806;38.082;2024-02-21T12:51:31;15.88;;;5.70;;
55989;SDS011;41875;55.806;38.082;2024-02-21T12:54:35;14.60;;;5.22;;
55989;SDS011;41875;55.806;38.082;2024-02-21T13:02:49;16.38;;;6.43;;
55989;SDS011;41875;55.806;38.082;2024-02-21T13:05:58;13.00;;;5.35;;
55989;SDS011;41875;55.806;38.082;2024-02-21T13:09:08;13.35;;;5.43;;
55989;SDS011;41875;55.806;38.082;2024-02-21T13:12:17;15.00;;;5.60;;
55989;SDS011;41875;55.806;38.082;2024-02-21T13:15:26;14.38;;;4.72;;
55989;SDS011;41875;55.806;38.082;2024-02-21T13:18:49;10.43;;;4.70;;
55989;SDS011;41875;55.806;38.082;2024-02-21T13:21:57;11.57;;;4.93;;
55989;SDS011;41875;55.806;38.082;2024-02-21T13:25:06;12.95;;;5.47;;
55989;SDS011;41875;55.806;38.082;2024-02-21T13:28:39;11.48;;;5.07;;
55989;SDS011;41875;55.806;38.082;2024-02-21T13:31:43;13.15;;;5.68;;
55989;SDS011;41875;55.806;38.082;2024-02-21T13:34:48;13.00;;;5.65;;
55989;SDS011;41875;55.806;38.082;2024-02-21T13:37:56;11.50;;;5.25;;
55989;SDS011;41875;55.806;38.082;2024-02-21T13:41:00;15.88;;;5.20;;
55989;SDS011;41875;55.806;38.082;2024-02-21T13:44:06;13.13;;;6.00;;
55989;SDS011;41875;55.806;38.082;2024-02-21T13:47:11;14.88;;;5.47;;
55989;SDS011;41875;55.806;38.082;2024-02-21T13:50:29;14.77;;;4.70;;
55989;SDS011;41875;55.806;38.082;2024-02-21T13:53:45;10.88;;;4.97;;
55989;SDS011;41875;55.806;38.082;2024-02-21T13:56:49;11.32;;;5.32;;
55989;SDS011;41875;55.806;38.082;2024-02-21T13:59:53;13.90;;;5.13;;
55989;SDS011;41875;55.806;38.082;2024-02-21T14:02:57;10.82;;;5.43;;
55989;SDS011;41875;55.806;38.082;2024-02-21T14:06:01;11.50;;;5.13;;
55989;SDS011;41875;55.806;38.082;2024-02-21T14:09:07;12.85;;;5.55;;
55989;SDS011;41875;55.806;38.082;2024-02-21T14:12:13;8.18;;;3.50;;
55989;SDS011;41875;55.806;38.082;2024-02-21T14:15:21;13.60;;;5.63;;
55989;SDS011;41875;55.806;38.082;2024-02-21T14:18:24;14.90;;;7.20;;
55989;SDS011;41875;55.806;38.082;2024-02-21T14:21:33;16.45;;;4.82;;
55989;SDS011;41875;55.806;38.082;2024-02-21T14:24:41;13.25;;;5.60;;
55989;SDS011;41875;55.806;38.082;2024-02-21T14:27:45;15.23;;;5.68;;
55989;SDS011;41875;55.806;38.082;2024-02-21T14:30:49;14.65;;;6.50;;
55989;SDS011;41875;55.806;38.082;2024-02-21T14:33:59;12.98;;;5.63;;
55989;SDS011;41875;55.806;38.082;2024-02-21T14:37:06;15.07;;;6.50;;
55989;SDS011;41875;55.806;38.082;2024-02-21T14:40:13;12.32;;;5.32;;
55989;SDS011;41875;55.806;38.082;2024-02-21T14:43:32;14.93;;;7.75;;
55989;SDS011;41875;55.806;38.082;2024-02-21T14:46:44;14.20;;;6.53;;
55989;SDS011;41875;55.806;38.082;2024-02-21T14:49:48;12.25;;;5.72;;
55989;SDS011;41875;55.806;38.082;2024-02-21T14:53:05;13.52;;;4.80;;
55989;SDS011;41875;55.806;38.082;2024-02-21T14:56:13;11.90;;;5.22;;
55989;SDS011;41875;55.806;38.082;2024-02-21T14:59:20;12.55;;;6.05;;
55989;SDS011;41875;55.806;38.082;2024-02-21T15:02:37;12.90;;;5.32;;
55989;SDS011;41875;55.806;38.082;2024-02-21T15:05:41;11.48;;;4.35;;
55989;SDS011;41875;55.806;38.082;2024-02-21T15:08:45;10.63;;;4.45;;
55989;SDS011;41875;55.806;38.082;2024-02-21T15:11:52;12.50;;;5.75;;
55989;SDS011;41875;55.806;38.082;2024-02-21T15:14:55;15.75;;;7.47;;
55989;SDS011;41875;55.806;38.082;2024-02-21T15:18:02;15.10;;;5.88;;
55989;SDS011;41875;55.806;38.082;2024-02-21T15:21:06;14.43;;;5.57;;
55989;SDS011;41875;55.806;38.082;2024-02-21T15:24:15;13.80;;;5.22;;
55989;SDS011;41875;55.806;38.082;2024-02-21T15:27:20;15.25;;;5.63;;
55989;SDS011;41875;55.806;38.082;2024-02-21T15:33:46;13.68;;;5.72;;
55989;SDS011;41875;55.806;38.082;2024-02-21T15:36:50;13.60;;;6.18;;
55989;SDS011;41875;55.806;38.082;2024-02-21T15:39:54;14.05;;;5.88;;
55989;SDS011;41875;55.806;38.082;2024-02-21T15:43:08;15.20;;;6.18;;
55989;SDS011;41875;55.806;38.082;2024-02-21T15:46:12;15.13;;;5.45;;
55989;SDS011;41875;55.806;38.082;2024-02-21T15:49:17;17.23;;;5.72;;
55989;SDS011;41875;55.806;38.082;2024-02-21T15:52:29;13.55;;;5.90;;
55989;SDS011;41875;55.806;38.082;2024-02-21T15:55:41;12.80;;;5.82;;
55989;SDS011;41875;55.806;38.082;2024-02-21T15:58:48;16.17;;;6.85;;
55989;SDS011;41875;55.806;38.082;2024-02-21T16:01:53;15.35;;;6.20;;
55989;SDS011;41875;55.806;38.082;2024-02-21T16:04:57;14.05;;;6.00;;
55989;SDS011;41875;55.806;38.082;2024-02-21T16:08:01;14.57;;;6.82;;
55989;SDS011;41875;55.806;38.082;2024-02-21T16:11:13;11.15;;;4.88;;
55989;SDS011;41875;55.806;38.082;2024-02-21T16:14:22;15.05;;;5.15;;
55989;SDS011;41875;55.806;38.082;2024-02-21T16:17:29;14.15;;;5.68;;
55989;SDS011;41875;55.806;38.082;2024-02-21T16:20:33;15.15;;;5.95;;
55989;SDS011;41875;55.806;38.082;2024-02-21T16:23:41;13.10;;;5.88;;
55989;SDS011;41875;55.806;38.082;2024-02-21T16:26:55;13.48;;;5.60;;
55989;SDS011;41875;55.806;38.082;2024-02-21T16:30:03;14.55;;;6.40;;
55989;SDS011;41875;55.806;38.082;2024-02-21T16:33:10;14.35;;;6.03;;
55989;SDS011;41875;55.806;38.082;2024-02-21T16:36:19;17.25;;;6.18;;
55989;SDS011;41875;55.806;38.082;2024-02-21T16:39:24;12.75;;;5.60;;
55989;SDS011;41875;55.806;38.082;2024-02-21T16:46:09;17.10;;;5.72;;
55989;SDS011;41875;55.806;38.082;2024-02-21T16:49:22;10.50;;;4.75;;
55989;SDS011;41875;55.806;38.082;2024-02-21T16:52:27;14.23;;;6.10;;
55989;SDS011;41875;55.806;38.082;2024-02-21T16:55:42;16.33;;;6.40;;
55989;SDS011;41875;55.806;38.082;2024-02-21T17:03:05;12.85;;;5.50;;
55989;SDS011;41875;55.806;38.082;2024-02-21T17:06:23;12.85;;;5.22;;
55989;SDS011;41875;55.806;38.082;2024-02-21T17:09:57;17.75;;;7.05;;
55989;SDS011;41875;55.806;38.082;2024-02-21T17:13:03;16.73;;;7.05;;
55989;SDS011;41875;55.806;38.082;2024-02-21T17:16:11;22.88;;;7.00;;
55989;SDS011;41875;55.806;38.082;2024-02-21T17:23:05;16.70;;;7.13;;
55989;SDS011;41875;55.806;38.082;2024-02-21T17:30:03;19.83;;;8.07;;
55989;SDS011;41875;55.806;38.082;2024-02-21T17:33:13;16.48;;;7.40;;
55989;SDS011;41875;55.806;38.082;2024-02-21T17:40:37;13.70;;;5.70;;
55989;SDS011;41875;55.806;38.082;2024-02-21T17:43:40;19.23;;;7.53;;
55989;SDS011;41875;55.806;38.082;2024-02-21T17:46:45;20.17;;;8.00;;
55989;SDS011;41875;55.806;38.082;2024-02-21T17:49:50;17.08;;;7.18;;
55989;SDS011;41875;55.806;38.082;2024-02-21T17:52:54;18.10;;;6.65;;
55989;SDS011;41875;55.806;38.082;2024-02-21T17:56:00;18.20;;;7.70;;
55989;SDS011;41875;55.806;38.082;2024-02-21T17:59:14;17.85;;;7.97;;
55989;SDS011;41875;55.806;38.082;2024-02-21T18:02:20;17.92;;;6.97;;
55989;SDS011;41875;55.806;38.082;2024-02-21T18:05:32;15.13;;;6.80;;
55989;SDS011;41875;55.806;38.082;2024-02-21T18:08:36;16.75;;;7.45;;
55989;SDS011;41875;55.806;38.082;2024-02-21T18:11:49;19.17;;;6.53;;
55989;SDS011;41875;55.806;38.082;2024-02-21T18:14:57;16.45;;;8.13;;
55989;SDS011;41875;55.806;38.082;2024-02-21T18:18:23;20.25;;;7.10;;
55989;SDS011;41875;55.806;38.082;2024-02-21T18:21:35;18.38;;;6.90;;
55989;SDS011;41875;55.806;38.082;2024-02-21T18:24:47;18.20;;;7.30;;
55989;SDS011;41875;55.806;38.082;2024-02-21T18:28:02;23.15;;;9.35;;
55989;SDS011;41875;55.806;38.082;2024-02-21T18:31:08;15.98;;;5.90;;
55989;SDS011;41875;55.806;38.082;2024-02-21T18:34:22;17.60;;;7.15;;
55989;SDS011;41875;55.806;38.082;2024-02-21T18:37:28;17.45;;;7.28;;
55989;SDS011;41875;55.806;38.082;2024-02-21T18:40:34;21.70;;;7.38;;
55989;SDS011;41875;55.806;38.082;2024-02-21T18:43:56;23.20;;;8.57;;
55989;SDS011;41875;55.806;38.082;2024-02-21T18:47:32;21.02;;;7.72;;
55989;SDS011;41875;55.806;38.082;2024-02-21T18:55:03;17.67;;;7.20;;
55989;SDS011;41875;55.806;38.082;2024-02-21T18:58:12;14.13;;;5.57;;
55989;SDS011;41875;55.806;38.082;2024-02-21T19:01:18;23.52;;;8.57;;
55989;SDS011;41875;55.806;38.082;2024-02-21T19:04:24;19.67;;;7.77;;
55989;SDS011;41875;55.806;38.082;2024-02-21T19:07:35;17.95;;;7.03;;
55989;SDS011;41875;55.806;38.082;2024-02-21T19:10:59;16.65;;;6.88;;
55989;SDS011;41875;55.806;38.082;2024-02-21T19:17:26;14.65;;;6.88;;